Time;durP1;ratioP1;P1;durP2;ratioP2;P2;SDS_P1;SDS_P2;PMS_P1;PMS_P2;Temp;Humidity;BMP_temperature;BMP_pressure;BME280_temperature;BME280_humidity;BME280_pressure;Samples;Min_cycle;Max_cycle;Signal;HPM_P1;HPM_P2
2021/04/17 07:37:11;;;;;;;7.96;4.32;;;;;;;22.57;41.34;99317.50;393279;104;1985887;-75
2021/04/17 07:38:20;;;;;;;7.91;3.33;;;;;;;22.75;39.83;99321.42;374455;107;1961954;-74
2021/04/17 07:39:36;;;;;;;7.98;4.22;;;;;;;22.76;39.14;99318.38;335726;110;1967967;-74
2021/04/17 07:41:06;;;;;;;12.68;4.66;;;;;;;22.34;40.02;99284.20;366591;107;1962937;-74
2021/04/17 07:42:15;;;;;;;10.93;4.57;;;;;;;22.49;39.54;99321.75;329628;108;2026943;-72
2021/04/17 07:43:21;;;;;;;10.38;4.42;;;;;;;22.30;39.21;99323.59;325050;108;2782150;-71
2021/04/17 07:44:32;;;;;;;8.41;3.81;;;;;;;22.03;38.87;99324.94;332596;110;1961852;-71
2021/04/17 07:45:40;;;;;;;8.73;4.22;;;;;;;21.94;40.03;99327.52;366962;110;1962965;-71
2021/04/17 07:46:45;;;;;;;6.34;3.86;;;;;;;21.81;40.59;99332.87;361256;112;1961949;-71
2021/04/17 07:47:54;;;;;;;7.76;3.85;;;;;;;21.65;39.06;99324.74;319586;110;2729027;-72
2021/04/17 07:49:12;;;;;;;6.76;3.69;;;;;;;21.58;41.45;99326.98;362847;111;1961929;-72
2021/04/17 07:50:20;;;;;;;6.52;3.46;;;;;;;21.49;40.55;99326.79;361865;110;1962035;-71
2021/04/17 07:51:26;;;;;;;6.92;3.75;;;;;;;21.22;42.25;99335.47;357556;109;1960605;-72
2021/04/17 07:52:35;;;;;;;7.57;4.10;;;;;;;21.09;41.59;99330.61;354810;112;1961018;-72
2021/04/17 07:53:43;;;;;;;6.79;3.86;;;;;;;21.01;41.06;99331.17;357935;111;1963910;-73
2021/04/17 07:54:55;;;;;;;7.61;4.18;;;;;;;20.91;41.92;99326.58;362575;109;1961954;-71
2021/04/17 07:56:28;;;;;;;8.77;4.52;;;;;;;20.93;42.28;99324.38;366576;109;1962022;-73
2021/04/17 07:57:45;;;;;;;8.58;4.99;;;;;;;20.85;41.51;99331.28;366676;109;1963940;-73
2021/04/17 07:59:00;;;;;;;8.37;4.82;;;;;;;20.75;41.84;99327.76;366657;109;1960714;-72
2021/04/17 08:00:11;;;;;;;8.36;4.94;;;;;;;20.66;42.13;99327.50;367725;109;1964004;-72
2021/04/17 08:01:19;;;;;;;7.31;4.03;;;;;;;20.56;41.94;99327.53;347062;114;2882010;-73
2021/04/17 08:02:26;;;;;;;7.58;4.71;;;;;;;20.55;42.32;99329.46;361059;109;1962028;-72
2021/04/17 08:03:32;;;;;;;10.01;5.21;;;;;;;20.46;42.03;99331.13;328677;111;2486997;-72
2021/04/17 08:04:39;;;;;;;7.67;4.40;;;;;;;20.43;42.23;99332.50;346040;109;1962924;-72
2021/04/17 08:05:45;;;;;;;8.18;4.27;;;;;;;20.45;41.21;99334.95;364875;109;1961897;-74
2021/04/17 08:06:53;;;;;;;7.54;4.39;;;;;;;20.39;41.61;99336.08;364267;109;1961984;-72
2021/04/17 08:07:58;;;;;;;7.56;4.81;;;;;;;20.39;42.24;99338.81;367263;109;1961953;-71
2021/04/17 08:09:06;;;;;;;9.09;5.17;;;;;;;20.35;42.48;99332.23;366512;107;1962080;-71
2021/04/17 08:10:15;;;;;;;8.42;5.03;;;;;;;20.32;42.43;99336.38;337146;109;1961942;-73
2021/04/17 08:11:23;;;;;;;9.08;4.96;;;;;;;20.30;42.08;99333.09;365557;105;1959750;-73
2021/04/17 08:12:28;;;;;;;7.64;4.42;;;;;;;20.29;41.08;99334.17;353929;108;1961964;-74
2021/04/17 08:13:39;;;;;;;8.67;5.57;;;;;;;20.16;42.25;99326.52;366591;108;1961985;-75
2021/04/17 08:14:46;;;;;;;8.73;5.34;;;;;;;20.27;42.04;99336.39;360280;110;1962033;-75
2021/04/17 08:15:52;;;;;;;10.40;5.08;;;;;;;20.27;41.83;99333.64;354355;112;1961942;-75
2021/04/17 08:16:57;;;;;;;9.36;5.27;;;;;;;20.27;41.81;99333.64;314412;112;1973979;-75
2021/04/17 08:18:04;;;;;;;13.80;6.10;;;;;;;20.30;42.07;99333.09;339456;114;1961998;-75
2021/04/17 08:19:10;;;;;;;8.86;4.79;;;;;;;20.26;42.31;99339.40;347972;114;1961928;-75
2021/04/17 08:20:18;;;;;;;8.39;4.81;;;;;;;20.28;41.99;99335.28;334752;112;2295957;-75
2021/04/17 08:21:24;;;;;;;8.73;5.01;;;;;;;20.26;42.52;99340.22;353536;112;1961898;-75
2021/04/17 08:22:30;;;;;;;8.74;4.96;;;;;;;20.14;41.82;99337.78;355358;112;1961963;-75
2021/04/17 08:23:38;;;;;;;8.88;5.23;;;;;;;19.97;41.83;99339.98;353741;112;1961880;-75
2021/04/17 08:24:46;;;;;;;9.49;5.62;;;;;;;19.84;41.65;99333.14;357741;110;1963864;-75
2021/04/17 08:25:54;;;;;;;10.63;6.30;;;;;;;19.89;43.06;99338.63;353456;110;2935010;-76
2021/04/17 08:27:01;;;;;;;11.52;5.86;;;;;;;19.90;42.85;99339.44;352877;114;1961919;-75
2021/04/17 08:28:19;;;;;;;10.04;5.62;;;;;;;19.92;42.22;99338.06;353923;112;1962998;-75
2021/04/17 08:29:46;;;;;;;12.17;5.99;;;;;;;19.91;43.39;99344.66;353386;112;1960665;-75
2021/04/17 08:31:22;;;;;;;12.37;7.04;;;;;;;19.91;43.57;99341.10;303060;112;2106847;-74
2021/04/17 08:32:31;;;;;;;10.82;6.73;;;;;;;19.78;43.42;99341.66;330308;112;2398018;-74
2021/04/17 08:33:38;;;;;;;12.72;7.83;;;;;;;19.79;43.12;99346.84;319151;113;2895935;-74
2021/04/17 08:34:59;;;;;;;12.79;8.00;;;;;;;19.79;43.90;99346.84;353878;112;1962029;-74
2021/04/17 08:36:04;;;;;;;14.82;8.12;;;;;;;19.76;41.78;99344.66;362345;110;1962045;-75
2021/04/17 08:37:10;;;;;;;12.68;7.74;;;;;;;19.64;42.53;99352.31;362998;112;1961979;-75
2021/04/17 08:38:15;;;;;;;11.12;6.93;;;;;;;19.61;42.11;99350.94;353769;112;1962041;-74
2021/04/17 08:39:38;;;;;;;11.96;7.46;;;;;;;19.36;42.16;99307.90;354082;112;1961899;-74
2021/04/17 08:40:48;;;;;;;11.16;7.70;;;;;;;19.62;42.09;99351.77;354779;112;1965019;-74
2021/04/17 08:41:54;;;;;;;13.29;7.79;;;;;;;19.59;42.13;99352.31;354420;114;1961070;-74
2021/04/17 08:43:00;;;;;;;14.53;12.09;;;;;;;19.61;43.22;99350.09;362218;110;1962927;-74
2021/04/17 08:44:32;;;;;;;12.04;8.98;;;;;;;19.66;43.47;99347.36;364710;108;1962035;-74
2021/04/17 08:45:59;;;;;;;12.61;8.27;;;;;;;19.64;42.83;99352.31;339532;110;2338017;-74
2021/04/17 08:47:06;;;;;;;11.17;7.52;;;;;;;19.60;42.82;99352.02;361231;112;1961971;-74
2021/04/17 08:48:13;;;;;;;11.59;7.03;;;;;;;19.58;42.79;99354.20;308062;112;2846908;-74
2021/04/17 08:49:25;;;;;;;12.59;7.82;;;;;;;19.68;44.22;99350.69;340503;113;1965323;-74
2021/04/17 08:50:37;;;;;;;12.96;7.20;;;;;;;19.67;43.33;99357.27;354967;112;1961876;-74
2021/04/17 08:51:43;;;;;;;13.51;8.21;;;;;;;19.63;43.52;99347.91;329441;110;2541895;-74
2021/04/17 08:53:07;;;;;;;14.67;8.84;;;;;;;19.63;43.28;99350.66;331495;113;1961964;-75
2021/04/17 08:54:17;;;;;;;11.97;7.36;;;;;;;19.62;43.66;99354.50;354768;114;1961952;-74
2021/04/17 08:55:25;;;;;;;11.97;7.28;;;;;;;19.67;43.20;99354.53;320487;114;2536879;-74
2021/04/17 08:56:49;;;;;;;14.46;7.69;;;;;;;19.71;42.99;99352.87;345575;114;2949941;-74
2021/04/17 08:58:16;;;;;;;11.48;7.33;;;;;;;19.72;43.71;99352.61;356065;103;1962894;-74
2021/04/17 08:59:31;;;;;;;13.59;7.49;;;;;;;19.64;42.67;99355.88;351868;114;1960902;-75
2021/04/17 09:00:43;;;;;;;12.71;7.09;;;;;;;19.68;43.43;99356.98;352982;113;1961945;-73
2021/04/17 09:01:50;;;;;;;16.15;8.16;;;;;;;19.70;42.19;99357.55;312319;105;2069948;-73
2021/04/17 09:02:57;;;;;;;13.89;7.96;;;;;;;19.71;42.36;99358.36;367798;109;1962055;-73
2021/04/17 09:04:09;;;;;;;11.83;7.49;;;;;;;19.69;43.06;99355.09;317533;109;1995978;-73
2021/04/17 09:05:17;;;;;;;12.58;7.85;;;;;;;19.70;42.91;99349.32;360107;111;1960927;-73
2021/04/17 09:06:28;;;;;;;12.44;8.20;;;;;;;19.63;42.79;99350.66;346725;113;1969891;-73
2021/04/17 09:07:37;;;;;;;12.38;7.35;;;;;;;19.66;43.19;99355.58;341695;111;1960842;-73
2021/04/17 09:08:42;;;;;;;11.04;7.42;;;;;;;19.66;43.05;99353.72;358878;111;1961884;-73
2021/04/17 09:09:49;;;;;;;11.70;7.29;;;;;;;19.62;43.14;99358.06;340365;113;2892920;-73
2021/04/17 09:10:54;;;;;;;11.55;7.57;;;;;;;19.62;43.37;99355.31;351188;113;1960933;-73
2021/04/17 09:12:06;;;;;;;12.13;7.68;;;;;;;19.65;44.00;99360.25;352235;113;1962992;-74
2021/04/17 09:13:18;;;;;;;14.52;8.44;;;;;;;19.67;43.11;99358.09;359853;111;1962922;-74
2021/04/17 09:14:33;;;;;;;13.59;7.88;;;;;;;19.67;42.65;99365.50;312905;111;2038885;-74
2021/04/17 09:15:56;;;;;;;20.90;8.99;;;;;;;19.63;42.14;99361.61;332284;111;1967853;-74
2021/04/17 09:17:07;;;;;;;12.19;7.86;;;;;;;19.65;42.80;99359.43;349355;115;1961983;-73
2021/04/17 09:18:36;;;;;;;12.98;8.52;;;;;;;19.61;43.56;99361.06;311548;111;2719987;-73
2021/04/17 09:19:52;;;;;;;12.58;8.48;;;;;;;19.64;43.61;99355.88;326295;111;2565931;-74
2021/04/17 09:20:58;;;;;;;13.71;8.07;;;;;;;19.65;42.89;99356.69;358190;111;1962024;-73
2021/04/17 09:22:25;;;;;;;14.12;8.14;;;;;;;19.68;43.07;99362.47;318574;111;2008976;-73
2021/04/17 09:23:45;;;;;;;14.88;8.77;;;;;;;19.67;42.71;99360.02;359476;111;1961957;-73
2021/04/17 09:24:52;;;;;;;12.29;8.40;;;;;;;19.68;42.73;99356.98;368235;108;1960890;-74
2021/04/17 09:25:57;;;;;;;13.48;9.08;;;;;;;19.68;43.04;99361.65;369116;108;1963947;-74
2021/04/17 09:27:04;;;;;;;13.37;8.24;;;;;;;19.64;43.20;99358.61;320763;110;2816888;-74
2021/04/17 09:28:10;;;;;;;12.48;8.20;;;;;;;19.74;43.50;99363.28;350308;110;1961936;-74
2021/04/17 09:29:19;;;;;;;13.83;9.27;;;;;;;19.75;42.76;99360.28;364229;110;1961965;-74
2021/04/17 09:30:25;;;;;;;14.28;9.56;;;;;;;19.77;42.50;99362.77;366916;110;1961890;-74
2021/04/17 09:31:37;;;;;;;13.55;9.22;;;;;;;19.80;43.91;99364.14;367526;110;1962947;-74
2021/04/17 09:32:46;;;;;;;15.44;9.13;;;;;;;19.84;42.35;99357.81;332205;108;2556937;-75
2021/04/17 09:34:00;;;;;;;14.64;9.71;;;;;;;19.86;42.65;99363.03;365233;108;1962925;-75
2021/04/17 09:35:18;;;;;;;15.69;9.22;;;;;;;19.97;42.56;99359.99;363893;111;1963012;-74
2021/04/17 09:36:25;;;;;;;15.36;9.71;;;;;;;19.92;42.77;99356.44;364255;110;1965001;-74
2021/04/17 09:37:32;;;;;;;15.01;10.01;;;;;;;19.94;42.64;99355.06;366798;108;1961964;-74
2021/04/17 09:38:38;;;;;;;16.81;10.45;;;;;;;19.93;42.81;99360.84;364794;108;1961959;-75
2021/04/17 09:39:45;;;;;;;16.47;10.27;;;;;;;19.94;42.07;99355.06;328253;110;2571946;-74
2021/04/17 09:40:54;;;;;;;16.28;11.34;;;;;;;19.91;42.39;99361.11;367611;110;1963942;-74
2021/04/17 09:42:03;;;;;;;15.22;10.16;;;;;;;19.89;42.86;99357.81;338558;109;1964986;-74
2021/04/17 09:43:16;;;;;;;18.11;10.48;;;;;;;19.90;43.54;99361.37;344390;108;2356963;-74
2021/04/17 09:44:21;;;;;;;18.16;9.97;;;;;;;19.90;43.46;99353.14;361644;110;1962046;-74
2021/04/17 09:45:41;;;;;;;14.93;10.44;;;;;;;19.91;42.45;99352.87;366143;110;1963906;-74
2021/04/17 09:47:06;;;;;;;18.58;10.05;;;;;;;19.90;42.49;99358.63;365882;110;1963004;-74
2021/04/17 09:48:12;;;;;;;17.96;10.56;;;;;;;19.94;42.15;99362.48;366507;110;1961917;-74
2021/04/17 09:49:38;;;;;;;15.16;10.08;;;;;;;19.90;42.45;99369.59;367656;110;1961954;-74
2021/04/17 09:50:46;;;;;;;17.23;10.13;;;;;;;19.70;42.84;99373.17;362893;103;1961834;-73
2021/04/17 09:51:55;;;;;;;15.31;9.91;;;;;;;19.60;43.30;99370.38;347180;116;1962960;-73
2021/04/17 09:53:12;;;;;;;15.08;10.66;;;;;;;19.57;42.65;99373.67;345241;115;1961953;-73
2021/04/17 09:54:19;;;;;;;16.32;10.86;;;;;;;19.57;43.07;99373.67;350308;114;1962956;-73
2021/04/17 09:55:24;;;;;;;20.52;11.68;;;;;;;19.47;43.28;99371.73;310241;119;1962015;-73
2021/04/17 09:56:41;;;;;;;20.88;13.97;;;;;;;19.49;43.07;99366.81;353107;107;1960899;-74
2021/04/17 09:57:49;;;;;;;19.30;13.15;;;;;;;19.44;43.43;99373.09;367425;109;1962071;-77
2021/04/17 09:58:56;;;;;;;20.17;13.53;;;;;;;19.43;43.87;99373.39;294114;110;2258920;-75
2021/04/17 10:00:04;;;;;;;21.08;14.07;;;;;;;19.42;43.86;99369.80;359060;110;1962961;-74
2021/04/17 10:01:14;;;;;;;23.93;14.16;;;;;;;19.42;43.79;99369.80;330848;111;1963970;-74
2021/04/17 10:02:20;;;;;;;21.96;14.53;;;;;;;19.45;43.82;99376.66;362562;111;1960868;-74
2021/04/17 10:03:29;;;;;;;20.74;14.48;;;;;;;19.43;43.94;99368.73;364780;111;1960738;-75
2021/04/17 10:05:02;;;;;;;22.63;16.56;;;;;;;19.47;43.77;99375.29;336290;109;2406727;-74
2021/04/17 10:06:29;;;;;;;27.92;17.93;;;;;;;19.51;43.95;99381.06;364087;111;1960650;-74
2021/04/17 10:07:46;;;;;;;29.24;19.21;;;;;;;19.51;43.81;99379.14;330022;109;2537799;-74
2021/04/17 10:08:52;;;;;;;32.09;20.17;;;;;;;19.44;43.79;99381.31;354644;110;1960663;-74
2021/04/17 10:10:00;;;;;;;33.54;21.38;;;;;;;19.43;43.50;99387.90;355892;112;1960876;-74
2021/04/17 10:11:09;;;;;;;35.41;20.43;;;;;;;19.41;43.85;99390.08;362096;111;1960628;-74
2021/04/17 10:12:16;;;;;;;29.81;19.46;;;;;;;19.39;42.88;99389.52;333991;110;1960759;-74
2021/04/17 10:13:44;;;;;;;34.37;21.73;;;;;;;19.38;43.12;99390.63;361482;111;1963348;-74
2021/04/17 10:14:50;;;;;;;34.63;20.94;;;;;;;19.30;43.51;99391.97;319978;110;2735907;-74
2021/04/17 10:15:56;;;;;;;34.32;21.75;;;;;;;19.26;43.53;99393.59;361950;111;1962965;-74
2021/04/17 10:17:02;;;;;;;35.22;22.23;;;;;;;19.18;43.70;99391.37;361794;110;1960749;-74
2021/04/17 10:18:09;;;;;;;32.51;21.29;;;;;;;19.13;44.05;99393.28;363367;110;1960844;-74
2021/04/17 10:19:19;;;;;;;35.96;21.42;;;;;;;19.14;43.09;99394.95;338945;110;1961047;-74
2021/04/17 10:20:28;;;;;;;33.06;20.66;;;;;;;19.08;44.31;99396.84;362334;111;1962025;-74
2021/04/17 10:21:36;;;;;;;32.94;19.03;;;;;;;19.07;43.37;99396.00;363073;110;1968956;-74
2021/04/17 10:22:43;;;;;;;32.35;21.07;;;;;;;19.16;44.24;99390.85;361041;111;1961046;-74
2021/04/17 10:24:14;;;;;;;32.46;21.17;;;;;;;19.07;43.81;99397.92;362268;110;1963028;-74
2021/04/17 10:25:41;;;;;;;34.10;19.82;;;;;;;19.12;44.35;99395.20;311506;111;2071953;-74
2021/04/17 10:26:57;;;;;;;29.39;17.53;;;;;;;19.23;43.48;99401.53;362663;112;1961862;-74
2021/04/17 10:28:12;;;;;;;28.00;18.28;;;;;;;19.20;43.98;99402.08;362436;110;1962914;-75
2021/04/17 10:29:21;;;;;;;28.72;17.16;;;;;;;18.83;42.84;99345.56;363163;110;1963938;31
2021/04/17 10:30:30;;;;;;;29.18;17.98;;;;;;;19.08;43.91;99394.11;370591;108;1963944;-74
2021/04/17 10:31:36;;;;;;;28.99;18.13;;;;;;;19.04;43.87;99396.55;376633;105;1961982;-74
2021/04/17 10:32:42;;;;;;;29.06;17.70;;;;;;;19.02;43.71;99403.38;375426;107;1962950;-74
2021/04/17 10:33:48;;;;;;;30.92;18.77;;;;;;;19.03;44.49;99394.91;377899;105;1962010;-74
2021/04/17 10:35:12;;;;;;;30.22;18.26;;;;;;;19.04;43.44;99393.80;377650;105;1961927;-74
2021/04/17 10:36:22;;;;;;;27.98;17.08;;;;;;;19.00;43.95;99400.92;373451;107;1960836;-74
2021/04/17 10:37:28;;;;;;;28.29;17.64;;;;;;;18.99;43.84;99398.44;374064;105;1962039;-75
2021/04/17 10:38:38;;;;;;;29.14;18.93;;;;;;;19.02;44.48;99397.91;368834;107;1962969;-75
2021/04/17 10:40:08;;;;;;;28.06;16.70;;;;;;;19.02;43.66;99398.72;363659;109;1962074;-74
2021/04/17 10:41:26;;;;;;;29.22;17.84;;;;;;;19.03;43.09;99403.12;374930;106;1962086;-76
2021/04/17 10:42:50;;;;;;;29.83;18.47;;;;;;;19.05;43.88;99402.84;372002;107;1962943;-75
2021/04/17 10:44:16;;;;;;;29.08;18.56;;;;;;;19.07;43.27;99396.00;354726;106;1960849;-75
2021/04/17 10:45:32;;;;;;;29.28;18.32;;;;;;;19.06;43.64;99408.06;372643;107;1962001;-74
2021/04/17 10:46:50;;;;;;;31.50;17.53;;;;;;;19.09;43.60;99412.17;372370;106;1962023;-75
2021/04/17 10:48:05;;;;;;;27.36;17.13;;;;;;;19.14;43.35;99408.64;336399;106;1962057;-74
2021/04/17 10:49:34;;;;;;;28.85;17.83;;;;;;;19.17;43.54;99403.44;369875;108;1961970;-74
2021/04/17 10:50:53;;;;;;;28.11;17.35;;;;;;;19.22;43.41;99410.86;348405;108;1962964;-74
2021/04/17 10:52:02;;;;;;;32.01;18.32;;;;;;;19.17;43.15;99406.17;362036;110;1961974;-75
2021/04/17 10:53:11;;;;;;;29.73;17.90;;;;;;;19.19;43.84;99408.66;367045;108;1961831;-74
2021/04/17 10:54:16;;;;;;;30.46;18.01;;;;;;;18.81;43.62;99351.29;367533;107;1962073;-74
2021/04/17 10:55:28;;;;;;;27.63;18.21;;;;;;;19.18;43.47;99409.73;370145;108;1962944;-74
2021/04/17 10:56:36;;;;;;;32.62;18.93;;;;;;;19.23;43.31;99415.23;314053;111;2784971;-74
2021/04/17 10:57:44;;;;;;;26.49;16.57;;;;;;;19.21;44.18;99410.03;367487;109;1962918;-74
2021/04/17 10:58:59;;;;;;;27.84;17.42;;;;;;;19.25;43.41;99416.61;320236;107;2845060;-74
2021/04/17 11:00:06;;;;;;;30.93;20.06;;;;;;;19.24;43.48;99414.16;359711;109;2880010;-74
2021/04/17 11:01:15;;;;;;;27.33;16.22;;;;;;;19.25;43.53;99421.27;362672;111;1961939;-74
2021/04/17 11:02:23;;;;;;;27.62;17.37;;;;;;;19.23;43.50;99417.96;355707;109;1961946;-74
2021/04/17 11:03:32;;;;;;;26.77;17.58;;;;;;;19.26;43.20;99412.77;368760;109;1962961;-74
2021/04/17 11:04:45;;;;;;;26.24;17.52;;;;;;;19.25;43.63;99419.34;367785;108;1961995;-74
2021/04/17 11:05:51;;;;;;;28.12;16.77;;;;;;;19.26;42.77;99415.50;296165;110;2215950;-74
2021/04/17 11:06:56;;;;;;;29.27;18.66;;;;;;;19.29;43.85;99420.47;354738;110;1961927;-74
2021/04/17 11:08:03;;;;;;;27.22;17.13;;;;;;;19.33;43.77;99418.00;364719;110;1961988;-74
2021/04/17 11:09:18;;;;;;;28.20;17.47;;;;;;;19.35;43.89;99418.56;368714;108;1961854;-74
2021/04/17 11:10:28;;;;;;;27.16;17.17;;;;;;;19.35;43.65;99418.56;369189;107;1961996;-74
2021/04/17 11:11:33;;;;;;;30.31;16.88;;;;;;;19.39;43.60;99418.83;368107;109;1964986;-74
2021/04/17 11:12:40;;;;;;;27.64;17.79;;;;;;;19.39;43.61;99425.12;367794;109;1961984;-74
2021/04/17 11:13:56;;;;;;;27.37;16.99;;;;;;;19.40;43.67;99424.05;366843;105;1960808;-75
2021/04/17 11:15:22;;;;;;;28.68;17.64;;;;;;;19.39;43.52;99425.12;336486;108;1961909;-75
2021/04/17 11:16:45;;;;;;;31.14;18.32;;;;;;;19.44;43.93;99422.41;363615;111;1962014;-74
2021/04/17 11:18:11;;;;;;;28.19;17.04;;;;;;;19.48;43.92;99419.97;336406;111;2420928;-75
2021/04/17 11:19:29;;;;;;;27.19;16.64;;;;;;;19.54;43.92;99422.43;354512;108;1969997;-74
2021/04/17 11:20:47;;;;;;;27.98;17.28;;;;;;;19.58;43.16;99419.14;322976;108;2827029;-74
2021/04/17 11:22:20;;;;;;;29.45;17.35;;;;;;;19.57;43.64;99423.80;368442;108;1961970;-74
2021/04/17 11:23:47;;;;;;;25.96;16.82;;;;;;;19.57;43.78;99428.47;369427;108;1962879;-74
2021/04/17 11:25:05;;;;;;;28.42;18.09;;;;;;;19.57;43.67;99433.95;363832;109;1963861;-74
2021/04/17 11:26:20;;;;;;;25.01;15.89;;;;;;;19.47;43.70;99426.52;360199;109;1961942;-74
2021/04/17 11:27:26;;;;;;;27.10;17.32;;;;;;;19.51;43.34;99430.37;332777;108;1961954;-74
2021/04/17 11:28:32;;;;;;;26.12;16.97;;;;;;;19.47;43.25;99426.52;370503;108;1962941;-74
2021/04/17 11:29:39;;;;;;;28.74;16.68;;;;;;;19.46;43.09;99427.63;366568;111;1962002;-74
2021/04/17 11:30:45;;;;;;;25.61;16.63;;;;;;;19.46;43.37;99431.19;370359;110;1961915;-74
2021/04/17 11:31:51;;;;;;;24.06;16.53;;;;;;;19.47;43.00;99429.26;327055;108;2711959;-74
2021/04/17 11:32:57;;;;;;;24.30;16.47;;;;;;;19.43;42.87;99426.25;367118;108;1963948;-75
2021/04/17 11:34:05;;;;;;;27.97;16.82;;;;;;;19.50;43.56;99445.16;367416;110;1961941;-74
2021/04/17 11:35:12;;;;;;;24.88;16.94;;;;;;;19.54;43.26;99424.35;334661;109;2545019;-74
2021/04/17 11:36:20;;;;;;;25.20;16.59;;;;;;;19.63;43.23;99427.38;361023;102;1960847;-74
2021/04/17 11:37:30;;;;;;;27.40;17.98;;;;;;;19.61;43.83;99408.48;341336;110;2311992;-74
2021/04/17 11:38:33;;;;;;;23.51;15.69;;;;;;;19.64;44.05;99420.82;362952;110;1962931;-75
2021/04/17 11:39:38;;;;;;;27.88;16.44;;;;;;;19.70;43.19;99422.49;356469;111;1961994;-74
2021/04/17 11:40:46;;;;;;;23.59;16.18;;;;;;;19.73;43.79;99421.95;316804;113;2722963;-74
2021/04/17 11:41:53;;;;;;;22.58;15.14;;;;;;;19.76;43.38;99424.14;333893;113;1962000;-74
2021/04/17 11:42:59;;;;;;;24.30;15.01;;;;;;;19.79;43.13;99430.99;354072;111;1961950;-74
2021/04/17 11:44:05;;;;;;;26.14;15.99;;;;;;;19.79;43.14;99423.59;355587;111;1962049;-74
2021/04/17 11:45:12;;;;;;;23.94;15.71;;;;;;;19.75;43.75;99425.24;309636;110;2868014;-74
2021/04/17 11:46:20;;;;;;;25.47;16.47;;;;;;;19.75;43.43;99427.98;354021;114;1962036;-74
2021/04/17 11:47:26;;;;;;;24.37;14.94;;;;;;;19.77;43.16;99425.80;326338;113;2434009;-74
2021/04/17 11:48:32;;;;;;;26.08;14.98;;;;;;;19.75;43.80;99430.72;337104;110;1964876;-75
2021/04/17 11:49:38;;;;;;;22.71;14.56;;;;;;;19.74;42.89;99429.91;349043;113;1961996;-74
2021/04/17 11:50:45;;;;;;;25.88;16.42;;;;;;;19.74;43.80;99431.80;358153;113;1961891;-75
2021/04/17 11:51:51;;;;;;;26.87;16.33;;;;;;;19.70;43.26;99438.94;349345;113;1962032;-74
2021/04/17 11:52:57;;;;;;;26.89;17.22;;;;;;;19.67;43.21;99434.00;320545;113;2559091;-75
2021/04/17 11:54:02;;;;;;;26.07;16.22;;;;;;;19.63;43.22;99443.81;349068;111;1964987;-74
2021/04/17 11:55:09;;;;;;;27.09;16.63;;;;;;;19.57;43.05;99439.42;354639;112;1961225;-74
2021/04/17 11:56:16;;;;;;;26.84;17.34;;;;;;;19.50;42.49;99440.52;354866;114;1961952;-74
2021/04/17 11:57:22;;;;;;;28.53;18.00;;;;;;;19.45;43.06;99440.50;318425;114;2626969;-74
2021/04/17 11:58:27;;;;;;;25.61;17.63;;;;;;;19.45;42.54;99439.66;328991;112;1961958;-74
2021/04/17 11:59:33;;;;;;;28.37;16.52;;;;;;;19.38;42.95;99433.63;343445;114;1961924;-75
2021/04/17 12:00:38;;;;;;;28.74;17.54;;;;;;;19.32;43.62;99435.53;348060;114;1961995;-75
2021/04/17 12:01:44;;;;;;;25.93;17.68;;;;;;;19.31;43.21;99433.88;347615;114;1964303;-74
2021/04/17 12:02:53;;;;;;;28.18;17.17;;;;;;;19.33;43.75;99437.98;352686;114;1962016;-76
2021/04/17 12:04:00;;;;;;;28.48;18.14;;;;;;;19.30;43.57;99445.93;351092;113;1961947;-75
2021/04/17 12:05:06;;;;;;;28.74;18.35;;;;;;;19.25;43.81;99446.73;348343;115;1961951;-75
2021/04/17 12:06:13;;;;;;;27.86;17.38;;;;;;;19.28;43.33;99435.23;295393;115;2119912;-75
2021/04/17 12:07:20;;;;;;;25.42;17.12;;;;;;;19.25;44.11;99443.99;348387;115;1961026;-75
2021/04/17 12:08:27;;;;;;;27.65;18.26;;;;;;;19.26;43.93;99448.36;347884;115;1962921;-75
2021/04/17 12:09:33;;;;;;;30.14;18.81;;;;;;;19.27;44.19;99449.21;333632;116;1962031;-75
2021/04/17 12:10:40;;;;;;;29.09;18.26;;;;;;;19.23;43.70;99450.83;349863;114;1962043;-75
2021/04/17 12:11:47;;;;;;;26.30;18.51;;;;;;;19.22;43.90;99446.45;352164;114;1962931;-75
2021/04/17 12:12:52;;;;;;;24.98;17.09;;;;;;;19.23;43.59;99443.42;301606;112;2112930;-75
2021/04/17 12:13:58;;;;;;;23.81;14.97;;;;;;;19.30;43.53;99443.19;329474;112;1961987;-76
2021/04/17 12:15:04;;;;;;;19.63;13.58;;;;;;;19.31;43.99;99442.09;343122;116;1961913;-75
2021/04/17 12:16:10;;;;;;;18.47;11.06;;;;;;;19.32;43.83;99441.02;354450;114;1963880;-75
2021/04/17 12:17:15;;;;;;;20.84;12.37;;;;;;;19.30;43.35;99445.93;351316;114;1960943;-75
2021/04/17 12:18:21;;;;;;;18.63;12.24;;;;;;;19.33;43.88;99445.39;350132;115;1961947;-75
2021/04/17 12:19:27;;;;;;;20.98;12.36;;;;;;;19.33;43.77;99442.65;310388;116;2603892;-75
2021/04/17 12:20:33;;;;;;;20.38;12.29;;;;;;;19.35;43.62;99437.73;344596;114;1960722;-75
2021/04/17 12:21:39;;;;;;;20.10;13.11;;;;;;;19.38;43.19;99448.14;353749;112;1962068;-76
2021/04/17 12:22:44;;;;;;;20.06;14.07;;;;;;;19.43;43.37;99442.69;352689;113;1962038;-76
2021/04/17 12:23:49;;;;;;;28.79;16.19;;;;;;;19.45;43.06;99447.88;348190;114;1962052;-75
2021/04/17 12:24:55;;;;;;;21.67;14.83;;;;;;;19.48;43.34;99445.44;344425;115;1962011;-75
2021/04/17 12:26:01;;;;;;;24.99;15.80;;;;;;;19.55;43.72;99447.91;352957;114;1962009;-75
2021/04/17 12:27:07;;;;;;;23.42;15.90;;;;;;;19.55;43.50;99450.64;352742;112;1961949;-75
2021/04/17 12:28:13;;;;;;;26.12;16.33;;;;;;;19.57;43.24;99448.47;311693;114;2737992;-75
2021/04/17 12:29:18;;;;;;;27.39;16.09;;;;;;;19.62;42.89;99451.22;331954;112;1963011;-75
2021/04/17 12:30:25;;;;;;;29.67;16.78;;;;;;;19.59;42.88;99453.69;356406;114;1963013;-75
2021/04/17 12:31:33;;;;;;;24.81;16.88;;;;;;;19.61;42.83;99451.48;347450;107;2877078;-76
2021/04/17 12:32:38;;;;;;;27.01;17.67;;;;;;;19.60;43.05;99447.92;357785;108;1961969;-76
2021/04/17 12:33:44;;;;;;;25.24;13.76;;;;;;;19.58;43.06;99449.28;370189;108;1961988;-77
2021/04/17 12:34:50;;;;;;;22.58;15.14;;;;;;;19.57;42.64;99455.87;371113;108;1964967;-76
2021/04/17 12:35:55;;;;;;;14.64;9.17;;;;;;;19.59;42.98;99448.20;370619;108;1961947;-76
2021/04/17 12:37:01;;;;;;;15.93;10.36;;;;;;;19.62;43.17;99447.66;369256;109;1961977;-76
2021/04/17 12:38:07;;;;;;;14.71;10.24;;;;;;;19.59;42.49;99449.03;370072;108;1961992;-76
2021/04/17 12:39:13;;;;;;;17.39;9.34;;;;;;;19.59;42.16;99453.69;346333;108;2381896;-76
2021/04/17 12:40:30;;;;;;;12.27;8.13;;;;;;;19.60;42.45;99450.66;369329;108;1961964;-76
2021/04/17 12:41:36;;;;;;;16.27;10.98;;;;;;;19.61;42.91;99445.99;345778;115;1962031;-75
2021/04/17 12:42:43;;;;;;;18.60;11.12;;;;;;;19.60;42.44;99449.84;357133;111;1962010;-75
2021/04/17 12:43:54;;;;;;;25.85;16.21;;;;;;;19.60;42.64;99455.33;321902;111;1961937;-75
2021/04/17 12:45:00;;;;;;;24.55;14.82;;;;;;;17.91;42.55;99187.34;365484;109;1964035;-75
2021/04/17 12:46:06;;;;;;;22.40;14.28;;;;;;;19.64;42.68;99457.26;363210;111;1963813;-75
2021/04/17 12:47:11;;;;;;;26.19;15.65;;;;;;;19.63;42.79;99457.52;368649;109;1961939;-75
2021/04/17 12:48:17;;;;;;;26.70;15.94;;;;;;;19.61;42.79;99451.48;364092;111;1961999;-75
2021/04/17 12:49:23;;;;;;;24.11;16.31;;;;;;;19.62;42.70;99453.95;343525;110;2300913;-75
2021/04/17 12:50:29;;;;;;;23.31;13.91;;;;;;;19.58;42.32;99457.50;360811;111;1961056;-75
2021/04/17 12:51:35;;;;;;;26.74;16.76;;;;;;;19.54;42.33;99458.05;361172;111;1960903;-74
2021/04/17 12:52:41;;;;;;;23.52;15.24;;;;;;;19.54;42.49;99457.23;363596;111;1961044;-85
2021/04/17 12:53:46;;;;;;;31.15;19.67;;;;;;;19.53;42.95;99455.59;355484;110;1960922;-73
2021/04/17 12:54:52;;;;;;;29.35;17.16;;;;;;;19.51;42.58;99457.77;356268;111;1960915;-75